sensor_id;sensor_type;location;lat;lon;timestamp;P1;durP1;ratioP1;P2;durP2;ratioP2
75628;SDS011;64213;46.452;16.994;2023-05-10T00:00:37;9.77;;;3.00;;
75628;SDS011;64213;46.452;16.994;2023-05-10T00:03:39;9.80;;;3.07;;
75628;SDS011;64213;46.452;16.994;2023-05-10T00:06:42;9.07;;;3.10;;
75628;SDS011;64213;46.452;16.994;2023-05-10T00:09:43;12.77;;;3.65;;
75628;SDS011;64213;46.452;16.994;2023-05-10T00:12:45;10.27;;;3.40;;
75628;SDS011;64213;46.452;16.994;2023-05-10T00:15:47;9.25;;;3.12;;
75628;SDS011;64213;46.452;16.994;2023-05-10T00:18:49;13.57;;;3.40;;
75628;SDS011;64213;46.452;16.994;2023-05-10T00:21:51;9.17;;;3.30;;
75628;SDS011;64213;46.452;16.994;2023-05-10T00:24:53;9.05;;;3.08;;
75628;SDS011;64213;46.452;16.994;2023-05-10T00:27:55;8.73;;;3.20;;
75628;SDS011;64213;46.452;16.994;2023-05-10T00:30:58;9.75;;;3.35;;
75628;SDS011;64213;46.452;16.994;2023-05-10T00:34:00;9.93;;;3.63;;
75628;SDS011;64213;46.452;16.994;2023-05-10T00:37:02;10.40;;;3.63;;
75628;SDS011;64213;46.452;16.994;2023-05-10T00:40:05;10.50;;;3.33;;
75628;SDS011;64213;46.452;16.994;2023-05-10T00:43:07;12.02;;;3.65;;
75628;SDS011;64213;46.452;16.994;2023-05-10T00:46:09;9.65;;;3.08;;
75628;SDS011;64213;46.452;16.994;2023-05-10T00:49:12;9.87;;;3.10;;
75628;SDS011;64213;46.452;16.994;2023-05-10T00:52:14;9.03;;;3.07;;
75628;SDS011;64213;46.452;16.994;2023-05-10T00:55:16;9.48;;;3.12;;
75628;SDS011;64213;46.452;16.994;2023-05-10T00:58:19;7.65;;;2.80;;
75628;SDS011;64213;46.452;16.994;2023-05-10T01:01:21;8.60;;;3.10;;
75628;SDS011;64213;46.452;16.994;2023-05-10T01:04:23;10.07;;;3.30;;
75628;SDS011;64213;46.452;16.994;2023-05-10T01:07:27;8.23;;;2.60;;
75628;SDS011;64213;46.452;16.994;2023-05-10T01:10:30;8.65;;;2.83;;
75628;SDS011;64213;46.452;16.994;2023-05-10T01:13:33;9.48;;;3.22;;
75628;SDS011;64213;46.452;16.994;2023-05-10T01:16:38;13.85;;;3.97;;
75628;SDS011;64213;46.452;16.994;2023-05-10T01:19:42;10.80;;;3.57;;
75628;SDS011;64213;46.452;16.994;2023-05-10T01:29:51;10.70;;;3.60;;
75628;SDS011;64213;46.452;16.994;2023-05-10T01:37:15;12.87;;;4.10;;
75628;SDS011;64213;46.452;16.994;2023-05-10T01:51:04;15.38;;;4.35;;
75628;SDS011;64213;46.452;16.994;2023-05-10T01:54:07;12.97;;;4.40;;
75628;SDS011;64213;46.452;16.994;2023-05-10T01:57:12;10.73;;;3.93;;
75628;SDS011;64213;46.452;16.994;2023-05-10T02:00:15;13.62;;;4.62;;
75628;SDS011;64213;46.452;16.994;2023-05-10T02:03:20;12.20;;;4.75;;
75628;SDS011;64213;46.452;16.994;2023-05-10T02:06:25;12.52;;;4.72;;
75628;SDS011;64213;46.452;16.994;2023-05-10T02:09:28;14.47;;;4.70;;
75628;SDS011;64213;46.452;16.994;2023-05-10T02:12:37;11.60;;;5.13;;
75628;SDS011;64213;46.452;16.994;2023-05-10T02:15:43;13.98;;;5.15;;
75628;SDS011;64213;46.452;16.994;2023-05-10T02:18:48;13.55;;;5.00;;
75628;SDS011;64213;46.452;16.994;2023-05-10T02:21:52;12.40;;;5.10;;
75628;SDS011;64213;46.452;16.994;2023-05-10T02:24:58;12.77;;;5.10;;
75628;SDS011;64213;46.452;16.994;2023-05-10T02:28:01;14.87;;;5.40;;
75628;SDS011;64213;46.452;16.994;2023-05-10T02:31:06;15.05;;;6.15;;
75628;SDS011;64213;46.452;16.994;2023-05-10T02:34:11;16.00;;;6.40;;
75628;SDS011;64213;46.452;16.994;2023-05-10T02:37:14;12.55;;;5.20;;
75628;SDS011;64213;46.452;16.994;2023-05-10T02:40:19;12.87;;;5.30;;
75628;SDS011;64213;46.452;16.994;2023-05-10T02:43:24;14.30;;;5.53;;
75628;SDS011;64213;46.452;16.994;2023-05-10T02:46:27;14.75;;;5.30;;
75628;SDS011;64213;46.452;16.994;2023-05-10T02:49:29;13.62;;;5.12;;
75628;SDS011;64213;46.452;16.994;2023-05-10T02:52:36;14.43;;;5.68;;
75628;SDS011;64213;46.452;16.994;2023-05-10T02:55:41;12.63;;;5.70;;
75628;SDS011;64213;46.452;16.994;2023-05-10T02:58:48;15.70;;;5.50;;
75628;SDS011;64213;46.452;16.994;2023-05-10T03:01:50;14.18;;;5.55;;
75628;SDS011;64213;46.452;16.994;2023-05-10T03:04:52;12.63;;;4.80;;
75628;SDS011;64213;46.452;16.994;2023-05-10T03:07:54;15.05;;;5.62;;
75628;SDS011;64213;46.452;16.994;2023-05-10T03:11:14;14.87;;;5.87;;
75628;SDS011;64213;46.452;16.994;2023-05-10T03:15:22;15.30;;;5.83;;
75628;SDS011;64213;46.452;16.994;2023-05-10T03:17:55;16.00;;;5.45;;
75628;SDS011;64213;46.452;16.994;2023-05-10T03:21:04;15.23;;;6.05;;
75628;SDS011;64213;46.452;16.994;2023-05-10T03:24:09;15.70;;;6.15;;
75628;SDS011;64213;46.452;16.994;2023-05-10T03:27:14;11.90;;;5.10;;
75628;SDS011;64213;46.452;16.994;2023-05-10T03:30:17;15.17;;;6.07;;
75628;SDS011;64213;46.452;16.994;2023-05-10T03:33:20;13.62;;;5.75;;
75628;SDS011;64213;46.452;16.994;2023-05-10T03:36:22;14.90;;;5.80;;
75628;SDS011;64213;46.452;16.994;2023-05-10T03:39:52;14.73;;;5.87;;
75628;SDS011;64213;46.452;16.994;2023-05-10T03:42:55;16.33;;;6.20;;
75628;SDS011;64213;46.452;16.994;2023-05-10T03:45:57;13.43;;;5.35;;
75628;SDS011;64213;46.452;16.994;2023-05-10T03:48:59;14.02;;;5.53;;
75628;SDS011;64213;46.452;16.994;2023-05-10T03:52:01;13.55;;;5.43;;
75628;SDS011;64213;46.452;16.994;2023-05-10T03:55:03;13.48;;;5.55;;
75628;SDS011;64213;46.452;16.994;2023-05-10T03:58:05;14.70;;;4.93;;
75628;SDS011;64213;46.452;16.994;2023-05-10T04:01:07;16.08;;;5.68;;
75628;SDS011;64213;46.452;16.994;2023-05-10T04:04:09;14.13;;;5.20;;
75628;SDS011;64213;46.452;16.994;2023-05-10T04:07:11;13.55;;;5.40;;
75628;SDS011;64213;46.452;16.994;2023-05-10T04:10:13;13.43;;;5.32;;
75628;SDS011;64213;46.452;16.994;2023-05-10T04:13:15;12.63;;;5.07;;
75628;SDS011;64213;46.452;16.994;2023-05-10T04:16:17;14.07;;;5.18;;
75628;SDS011;64213;46.452;16.994;2023-05-10T04:19:19;14.65;;;5.50;;
75628;SDS011;64213;46.452;16.994;2023-05-10T04:22:21;16.30;;;5.95;;
75628;SDS011;64213;46.452;16.994;2023-05-10T04:25:23;14.00;;;5.57;;
75628;SDS011;64213;46.452;16.994;2023-05-10T04:28:25;14.67;;;5.13;;
75628;SDS011;64213;46.452;16.994;2023-05-10T04:31:27;15.73;;;5.70;;
75628;SDS011;64213;46.452;16.994;2023-05-10T04:34:29;14.20;;;5.97;;
75628;SDS011;64213;46.452;16.994;2023-05-10T04:37:31;12.85;;;4.90;;
75628;SDS011;64213;46.452;16.994;2023-05-10T04:40:33;11.80;;;4.75;;
75628;SDS011;64213;46.452;16.994;2023-05-10T04:43:36;13.20;;;4.90;;
75628;SDS011;64213;46.452;16.994;2023-05-10T04:46:38;12.02;;;4.85;;
75628;SDS011;64213;46.452;16.994;2023-05-10T04:49:41;12.23;;;5.10;;
75628;SDS011;64213;46.452;16.994;2023-05-10T04:52:43;13.43;;;5.60;;
75628;SDS011;64213;46.452;16.994;2023-05-10T04:55:45;13.30;;;4.93;;
75628;SDS011;64213;46.452;16.994;2023-05-10T04:58:47;11.93;;;4.43;;
75628;SDS011;64213;46.452;16.994;2023-05-10T05:01:49;14.63;;;5.12;;
75628;SDS011;64213;46.452;16.994;2023-05-10T05:04:51;11.18;;;4.43;;
75628;SDS011;64213;46.452;16.994;2023-05-10T05:07:53;12.20;;;4.30;;
75628;SDS011;64213;46.452;16.994;2023-05-10T05:10:55;12.40;;;4.25;;
75628;SDS011;64213;46.452;16.994;2023-05-10T05:13:57;10.77;;;4.23;;
75628;SDS011;64213;46.452;16.994;2023-05-10T05:17:00;12.27;;;4.62;;
75628;SDS011;64213;46.452;16.994;2023-05-10T05:20:02;10.70;;;4.53;;
75628;SDS011;64213;46.452;16.994;2023-05-10T05:23:05;10.60;;;3.72;;
75628;SDS011;64213;46.452;16.994;2023-05-10T05:26:07;14.38;;;4.53;;
75628;SDS011;64213;46.452;16.994;2023-05-10T05:29:09;10.73;;;4.17;;
75628;SDS011;64213;46.452;16.994;2023-05-10T05:32:11;10.40;;;3.85;;
75628;SDS011;64213;46.452;16.994;2023-05-10T05:35:13;10.00;;;3.65;;
75628;SDS011;64213;46.452;16.994;2023-05-10T05:38:15;13.02;;;4.30;;
75628;SDS011;64213;46.452;16.994;2023-05-10T05:41:18;10.15;;;3.90;;
75628;SDS011;64213;46.452;16.994;2023-05-10T05:44:21;11.07;;;3.70;;
75628;SDS011;64213;46.452;16.994;2023-05-10T05:47:23;10.57;;;4.00;;
75628;SDS011;64213;46.452;16.994;2023-05-10T05:50:25;9.00;;;3.45;;
75628;SDS011;64213;46.452;16.994;2023-05-10T05:53:27;11.02;;;3.70;;
75628;SDS011;64213;46.452;16.994;2023-05-10T05:56:29;12.10;;;3.55;;
75628;SDS011;64213;46.452;16.994;2023-05-10T05:59:31;8.77;;;3.20;;
75628;SDS011;64213;46.452;16.994;2023-05-10T06:02:33;8.27;;;2.90;;
75628;SDS011;64213;46.452;16.994;2023-05-10T06:05:35;8.35;;;3.05;;
75628;SDS011;64213;46.452;16.994;2023-05-10T06:08:37;8.55;;;2.65;;
75628;SDS011;64213;46.452;16.994;2023-05-10T06:11:39;9.63;;;2.95;;
75628;SDS011;64213;46.452;16.994;2023-05-10T06:14:41;8.20;;;2.60;;
75628;SDS011;64213;46.452;16.994;2023-05-10T06:17:43;7.90;;;2.85;;
75628;SDS011;64213;46.452;16.994;2023-05-10T06:20:46;7.87;;;2.67;;
75628;SDS011;64213;46.452;16.994;2023-05-10T06:23:48;9.57;;;3.22;;
75628;SDS011;64213;46.452;16.994;2023-05-10T06:26:50;8.57;;;3.30;;
75628;SDS011;64213;46.452;16.994;2023-05-10T06:29:52;8.60;;;2.80;;
75628;SDS011;64213;46.452;16.994;2023-05-10T06:33:09;7.85;;;2.83;;
75628;SDS011;64213;46.452;16.994;2023-05-10T06:36:11;8.10;;;2.65;;
75628;SDS011;64213;46.452;16.994;2023-05-10T06:39:14;7.72;;;2.90;;
75628;SDS011;64213;46.452;16.994;2023-05-10T06:42:17;7.75;;;2.92;;
75628;SDS011;64213;46.452;16.994;2023-05-10T06:45:20;8.63;;;2.27;;
75628;SDS011;64213;46.452;16.994;2023-05-10T06:48:22;7.62;;;2.67;;
75628;SDS011;64213;46.452;16.994;2023-05-10T06:51:24;7.12;;;2.58;;
75628;SDS011;64213;46.452;16.994;2023-05-10T06:54:46;8.65;;;2.60;;
75628;SDS011;64213;46.452;16.994;2023-05-10T06:57:48;7.62;;;2.42;;
75628;SDS011;64213;46.452;16.994;2023-05-10T07:00:50;7.27;;;2.17;;
75628;SDS011;64213;46.452;16.994;2023-05-10T07:03:52;7.00;;;2.08;;
75628;SDS011;64213;46.452;16.994;2023-05-10T07:06:54;8.30;;;2.50;;
75628;SDS011;64213;46.452;16.994;2023-05-10T07:09:56;7.95;;;2.10;;
75628;SDS011;64213;46.452;16.994;2023-05-10T07:12:59;6.72;;;2.12;;
75628;SDS011;64213;46.452;16.994;2023-05-10T07:16:03;6.47;;;1.87;;
75628;SDS011;64213;46.452;16.994;2023-05-10T07:19:05;7.40;;;1.85;;
75628;SDS011;64213;46.452;16.994;2023-05-10T07:22:07;8.02;;;2.28;;
75628;SDS011;64213;46.452;16.994;2023-05-10T07:25:09;6.78;;;2.28;;
75628;SDS011;64213;46.452;16.994;2023-05-10T07:28:12;6.90;;;2.20;;
75628;SDS011;64213;46.452;16.994;2023-05-10T07:31:15;7.10;;;2.17;;
75628;SDS011;64213;46.452;16.994;2023-05-10T07:34:17;6.78;;;2.17;;
75628;SDS011;64213;46.452;16.994;2023-05-10T07:37:19;6.80;;;2.50;;
75628;SDS011;64213;46.452;16.994;2023-05-10T07:40:21;7.37;;;1.90;;
75628;SDS011;64213;46.452;16.994;2023-05-10T07:43:23;6.65;;;1.83;;
75628;SDS011;64213;46.452;16.994;2023-05-10T07:46:25;7.17;;;2.00;;
75628;SDS011;64213;46.452;16.994;2023-05-10T07:49:27;6.30;;;2.15;;
75628;SDS011;64213;46.452;16.994;2023-05-10T07:52:29;7.82;;;2.12;;
75628;SDS011;64213;46.452;16.994;2023-05-10T07:55:31;6.80;;;1.90;;
75628;SDS011;64213;46.452;16.994;2023-05-10T07:58:34;7.20;;;1.70;;
75628;SDS011;64213;46.452;16.994;2023-05-10T08:01:36;5.93;;;1.77;;
75628;SDS011;64213;46.452;16.994;2023-05-10T08:04:38;6.53;;;1.95;;
75628;SDS011;64213;46.452;16.994;2023-05-10T08:07:40;6.90;;;2.00;;
75628;SDS011;64213;46.452;16.994;2023-05-10T08:10:42;7.65;;;2.25;;
75628;SDS011;64213;46.452;16.994;2023-05-10T08:13:47;6.47;;;2.08;;
75628;SDS011;64213;46.452;16.994;2023-05-10T08:16:50;6.30;;;1.93;;
75628;SDS011;64213;46.452;16.994;2023-05-10T08:19:52;6.65;;;1.95;;
75628;SDS011;64213;46.452;16.994;2023-05-10T08:22:53;6.95;;;2.08;;
75628;SDS011;64213;46.452;16.994;2023-05-10T08:25:55;6.75;;;1.98;;
75628;SDS011;64213;46.452;16.994;2023-05-10T08:28:57;7.60;;;2.20;;
75628;SDS011;64213;46.452;16.994;2023-05-10T08:31:59;5.60;;;1.90;;
75628;SDS011;64213;46.452;16.994;2023-05-10T08:35:02;5.93;;;1.90;;
75628;SDS011;64213;46.452;16.994;2023-05-10T08:38:04;6.37;;;1.85;;
75628;SDS011;64213;46.452;16.994;2023-05-10T08:41:06;6.12;;;1.87;;
75628;SDS011;64213;46.452;16.994;2023-05-10T08:44:08;6.30;;;2.00;;
75628;SDS011;64213;46.452;16.994;2023-05-10T08:47:11;6.93;;;1.50;;
75628;SDS011;64213;46.452;16.994;2023-05-10T08:50:15;5.72;;;1.73;;
75628;SDS011;64213;46.452;16.994;2023-05-10T08:53:18;5.95;;;1.90;;
75628;SDS011;64213;46.452;16.994;2023-05-10T08:56:22;6.07;;;1.83;;
75628;SDS011;64213;46.452;16.994;2023-05-10T08:59:25;6.50;;;2.15;;
75628;SDS011;64213;46.452;16.994;2023-05-10T09:02:27;6.97;;;1.80;;
75628;SDS011;64213;46.452;16.994;2023-05-10T09:05:29;7.93;;;1.58;;
75628;SDS011;64213;46.452;16.994;2023-05-10T09:08:31;6.40;;;1.80;;
75628;SDS011;64213;46.452;16.994;2023-05-10T09:11:33;6.55;;;1.70;;
75628;SDS011;64213;46.452;16.994;2023-05-10T09:14:36;6.05;;;1.70;;
75628;SDS011;64213;46.452;16.994;2023-05-10T09:17:39;6.00;;;1.90;;
75628;SDS011;64213;46.452;16.994;2023-05-10T09:20:42;5.30;;;1.73;;
75628;SDS011;64213;46.452;16.994;2023-05-10T09:23:44;6.18;;;1.52;;
75628;SDS011;64213;46.452;16.994;2023-05-10T09:26:49;5.60;;;1.70;;
75628;SDS011;64213;46.452;16.994;2023-05-10T09:29:51;7.53;;;1.98;;
75628;SDS011;64213;46.452;16.994;2023-05-10T09:32:56;5.47;;;1.50;;
75628;SDS011;64213;46.452;16.994;2023-05-10T09:36:06;5.97;;;1.70;;
75628;SDS011;64213;46.452;16.994;2023-05-10T09:39:09;7.45;;;1.75;;
75628;SDS011;64213;46.452;16.994;2023-05-10T09:42:12;6.62;;;1.80;;
75628;SDS011;64213;46.452;16.994;2023-05-10T09:45:13;10.15;;;2.17;;
75628;SDS011;64213;46.452;16.994;2023-05-10T09:48:16;6.77;;;2.10;;
75628;SDS011;64213;46.452;16.994;2023-05-10T09:51:21;6.60;;;1.80;;
75628;SDS011;64213;46.452;16.994;2023-05-10T09:54:24;5.85;;;1.83;;
75628;SDS011;64213;46.452;16.994;2023-05-10T09:57:26;7.37;;;2.10;;
75628;SDS011;64213;46.452;16.994;2023-05-10T10:00:34;6.40;;;2.30;;
75628;SDS011;64213;46.452;16.994;2023-05-10T10:03:41;6.60;;;2.37;;
75628;SDS011;64213;46.452;16.994;2023-05-10T10:06:44;6.43;;;2.00;;
75628;SDS011;64213;46.452;16.994;2023-05-10T10:09:46;6.97;;;2.28;;
75628;SDS011;64213;46.452;16.994;2023-05-10T10:12:48;6.07;;;1.95;;
75628;SDS011;64213;46.452;16.994;2023-05-10T10:15:51;6.18;;;2.10;;
75628;SDS011;64213;46.452;16.994;2023-05-10T10:18:54;6.40;;;2.10;;
75628;SDS011;64213;46.452;16.994;2023-05-10T10:21:57;7.10;;;2.15;;
75628;SDS011;64213;46.452;16.994;2023-05-10T10:25:00;6.68;;;2.30;;
75628;SDS011;64213;46.452;16.994;2023-05-10T10:28:16;6.07;;;2.10;;
75628;SDS011;64213;46.452;16.994;2023-05-10T10:31:41;6.85;;;2.50;;
75628;SDS011;64213;46.452;16.994;2023-05-10T10:34:48;6.73;;;2.40;;
75628;SDS011;64213;46.452;16.994;2023-05-10T10:37:51;6.85;;;2.10;;
75628;SDS011;64213;46.452;16.994;2023-05-10T10:41:03;8.93;;;2.50;;
75628;SDS011;64213;46.452;16.994;2023-05-10T10:47:28;7.72;;;2.42;;
75628;SDS011;64213;46.452;16.994;2023-05-10T10:50:42;7.97;;;2.10;;
75628;SDS011;64213;46.452;16.994;2023-05-10T10:53:47;8.18;;;2.60;;
75628;SDS011;64213;46.452;16.994;2023-05-10T10:57:09;8.27;;;2.45;;
75628;SDS011;64213;46.452;16.994;2023-05-10T11:00:30;6.50;;;2.53;;
75628;SDS011;64213;46.452;16.994;2023-05-10T11:03:33;6.85;;;2.62;;
75628;SDS011;64213;46.452;16.994;2023-05-10T11:06:35;6.97;;;2.70;;
75628;SDS011;64213;46.452;16.994;2023-05-10T11:09:40;8.32;;;2.80;;
75628;SDS011;64213;46.452;16.994;2023-05-10T11:12:50;6.35;;;2.37;;
75628;SDS011;64213;46.452;16.994;2023-05-10T11:19:15;8.13;;;2.58;;
75628;SDS011;64213;46.452;16.994;2023-05-10T11:22:18;6.20;;;2.40;;
75628;SDS011;64213;46.452;16.994;2023-05-10T11:25:25;7.62;;;2.80;;
75628;SDS011;64213;46.452;16.994;2023-05-10T11:28:28;6.62;;;2.67;;
75628;SDS011;64213;46.452;16.994;2023-05-10T11:31:30;6.97;;;2.10;;
75628;SDS011;64213;46.452;16.994;2023-05-10T11:34:32;6.50;;;2.42;;
75628;SDS011;64213;46.452;16.994;2023-05-10T11:37:35;7.90;;;3.10;;
75628;SDS011;64213;46.452;16.994;2023-05-10T11:40:37;7.57;;;3.60;;
75628;SDS011;64213;46.452;16.994;2023-05-10T11:43:41;6.57;;;2.55;;
75628;SDS011;64213;46.452;16.994;2023-05-10T11:46:44;9.02;;;2.55;;
75628;SDS011;64213;46.452;16.994;2023-05-10T11:49:48;6.85;;;2.95;;
75628;SDS011;64213;46.452;16.994;2023-05-10T11:52:51;6.90;;;3.00;;
75628;SDS011;64213;46.452;16.994;2023-05-10T11:56:03;6.93;;;3.20;;
75628;SDS011;64213;46.452;16.994;2023-05-10T11:59:07;8.57;;;3.25;;
75628;SDS011;64213;46.452;16.994;2023-05-10T12:02:10;6.75;;;2.80;;
75628;SDS011;64213;46.452;16.994;2023-05-10T12:05:11;7.93;;;3.40;;
75628;SDS011;64213;46.452;16.994;2023-05-10T12:08:15;7.13;;;2.93;;
75628;SDS011;64213;46.452;16.994;2023-05-10T12:11:24;9.23;;;3.33;;
75628;SDS011;64213;46.452;16.994;2023-05-10T12:14:27;9.73;;;3.30;;
75628;SDS011;64213;46.452;16.994;2023-05-10T12:17:30;8.40;;;3.20;;
75628;SDS011;64213;46.452;16.994;2023-05-10T12:20:32;6.60;;;3.08;;
75628;SDS011;64213;46.452;16.994;2023-05-10T12:23:34;7.67;;;3.00;;
75628;SDS011;64213;46.452;16.994;2023-05-10T12:26:36;8.65;;;3.10;;
75628;SDS011;64213;46.452;16.994;2023-05-10T12:29:52;6.60;;;3.03;;
75628;SDS011;64213;46.452;16.994;2023-05-10T12:32:59;6.90;;;3.30;;
75628;SDS011;64213;46.452;16.994;2023-05-10T12:36:03;7.93;;;3.83;;
75628;SDS011;64213;46.452;16.994;2023-05-10T12:39:05;6.40;;;2.80;;
75628;SDS011;64213;46.452;16.994;2023-05-10T12:42:07;7.12;;;3.60;;
75628;SDS011;64213;46.452;16.994;2023-05-10T12:45:09;8.70;;;3.15;;
75628;SDS011;64213;46.452;16.994;2023-05-10T12:48:11;8.07;;;3.50;;
75628;SDS011;64213;46.452;16.994;2023-05-10T12:51:13;9.10;;;3.53;;
75628;SDS011;64213;46.452;16.994;2023-05-10T12:54:18;8.70;;;2.83;;
75628;SDS011;64213;46.452;16.994;2023-05-10T12:57:20;7.12;;;3.05;;
75628;SDS011;64213;46.452;16.994;2023-05-10T13:00:23;7.53;;;3.33;;
75628;SDS011;64213;46.452;16.994;2023-05-10T13:03:25;7.07;;;3.20;;
75628;SDS011;64213;46.452;16.994;2023-05-10T13:06:27;9.52;;;3.33;;
75628;SDS011;64213;46.452;16.994;2023-05-10T13:09:29;7.93;;;3.30;;
75628;SDS011;64213;46.452;16.994;2023-05-10T13:12:31;7.80;;;3.40;;
75628;SDS011;64213;46.452;16.994;2023-05-10T13:15:33;10.15;;;3.70;;
75628;SDS011;64213;46.452;16.994;2023-05-10T13:18:35;7.47;;;3.37;;
75628;SDS011;64213;46.452;16.994;2023-05-10T13:21:37;8.98;;;4.00;;
75628;SDS011;64213;46.452;16.994;2023-05-10T13:24:39;7.73;;;3.80;;
75628;SDS011;64213;46.452;16.994;2023-05-10T13:27:41;8.00;;;3.97;;
75628;SDS011;64213;46.452;16.994;2023-05-10T13:30:43;9.52;;;4.53;;
75628;SDS011;64213;46.452;16.994;2023-05-10T13:33:45;8.45;;;4.30;;
75628;SDS011;64213;46.452;16.994;2023-05-10T13:36:47;7.43;;;4.00;;
75628;SDS011;64213;46.452;16.994;2023-05-10T13:39:49;7.93;;;4.27;;
75628;SDS011;64213;46.452;16.994;2023-05-10T13:42:51;9.50;;;4.37;;
75628;SDS011;64213;46.452;16.994;2023-05-10T13:45:54;8.65;;;4.50;;
75628;SDS011;64213;46.452;16.994;2023-05-10T13:48:56;7.60;;;3.87;;
75628;SDS011;64213;46.452;16.994;2023-05-10T13:51:58;11.32;;;4.50;;
75628;SDS011;64213;46.452;16.994;2023-05-10T13:55:00;8.30;;;3.90;;
75628;SDS011;64213;46.452;16.994;2023-05-10T13:58:02;7.90;;;3.83;;
75628;SDS011;64213;46.452;16.994;2023-05-10T14:01:04;7.87;;;3.72;;
75628;SDS011;64213;46.452;16.994;2023-05-10T14:04:06;7.82;;;3.75;;
75628;SDS011;64213;46.452;16.994;2023-05-10T14:07:11;10.30;;;4.03;;
75628;SDS011;64213;46.452;16.994;2023-05-10T14:10:13;7.70;;;3.50;;
75628;SDS011;64213;46.452;16.994;2023-05-10T14:13:15;8.02;;;3.87;;
75628;SDS011;64213;46.452;16.994;2023-05-10T14:16:17;8.27;;;3.10;;
75628;SDS011;64213;46.452;16.994;2023-05-10T14:19:19;8.30;;;3.87;;
75628;SDS011;64213;46.452;16.994;2023-05-10T14:22:21;8.73;;;3.67;;
75628;SDS011;64213;46.452;16.994;2023-05-10T14:25:24;7.80;;;3.67;;
75628;SDS011;64213;46.452;16.994;2023-05-10T14:28:26;8.13;;;3.80;;
75628;SDS011;64213;46.452;16.994;2023-05-10T14:31:28;7.78;;;3.83;;
75628;SDS011;64213;46.452;16.994;2023-05-10T14:34:31;8.00;;;3.55;;
75628;SDS011;64213;46.452;16.994;2023-05-10T14:37:34;7.70;;;3.58;;
75628;SDS011;64213;46.452;16.994;2023-05-10T14:40:36;8.33;;;3.10;;
75628;SDS011;64213;46.452;16.994;2023-05-10T14:43:38;8.40;;;3.30;;
75628;SDS011;64213;46.452;16.994;2023-05-10T14:46:39;8.85;;;3.70;;
75628;SDS011;64213;46.452;16.994;2023-05-10T14:49:41;9.60;;;3.85;;
75628;SDS011;64213;46.452;16.994;2023-05-10T14:52:44;7.87;;;3.92;;
75628;SDS011;64213;46.452;16.994;2023-05-10T14:55:46;8.40;;;3.43;;
75628;SDS011;64213;46.452;16.994;2023-05-10T14:58:49;7.25;;;2.97;;
75628;SDS011;64213;46.452;16.994;2023-05-10T15:01:51;8.05;;;3.05;;
75628;SDS011;64213;46.452;16.994;2023-05-10T15:04:53;7.75;;;3.28;;
75628;SDS011;64213;46.452;16.994;2023-05-10T15:07:55;9.52;;;3.25;;
75628;SDS011;64213;46.452;16.994;2023-05-10T15:10:57;8.00;;;3.43;;
75628;SDS011;64213;46.452;16.994;2023-05-10T15:13:59;8.13;;;3.85;;
75628;SDS011;64213;46.452;16.994;2023-05-10T15:17:01;7.65;;;3.40;;
75628;SDS011;64213;46.452;16.994;2023-05-10T15:20:03;7.37;;;3.40;;
75628;SDS011;64213;46.452;16.994;2023-05-10T15:23:06;8.85;;;3.55;;
75628;SDS011;64213;46.452;16.994;2023-05-10T15:26:08;7.20;;;3.30;;
75628;SDS011;64213;46.452;16.994;2023-05-10T15:29:10;7.30;;;3.30;;
75628;SDS011;64213;46.452;16.994;2023-05-10T15:32:12;7.87;;;3.72;;
75628;SDS011;64213;46.452;16.994;2023-05-10T15:35:14;7.72;;;3.30;;
75628;SDS011;64213;46.452;16.994;2023-05-10T15:38:17;8.32;;;3.35;;
75628;SDS011;64213;46.452;16.994;2023-05-10T15:41:20;10.67;;;3.40;;
75628;SDS011;64213;46.452;16.994;2023-05-10T15:44:22;8.98;;;3.30;;
75628;SDS011;64213;46.452;16.994;2023-05-10T15:47:26;8.65;;;3.40;;
75628;SDS011;64213;46.452;16.994;2023-05-10T15:50:29;7.60;;;2.97;;
75628;SDS011;64213;46.452;16.994;2023-05-10T15:53:31;9.05;;;3.58;;
75628;SDS011;64213;46.452;16.994;2023-05-10T15:56:32;8.10;;;3.20;;
75628;SDS011;64213;46.452;16.994;2023-05-10T15:59:35;8.57;;;3.30;;
75628;SDS011;64213;46.452;16.994;2023-05-10T16:02:38;7.80;;;3.22;;
75628;SDS011;64213;46.452;16.994;2023-05-10T16:05:41;9.55;;;3.40;;
75628;SDS011;64213;46.452;16.994;2023-05-10T16:08:43;9.50;;;3.70;;
75628;SDS011;64213;46.452;16.994;2023-05-10T16:11:45;7.13;;;3.27;;
75628;SDS011;64213;46.452;16.994;2023-05-10T16:14:47;7.85;;;3.40;;
75628;SDS011;64213;46.452;16.994;2023-05-10T16:17:49;9.20;;;3.58;;
75628;SDS011;64213;46.452;16.994;2023-05-10T16:20:52;8.55;;;3.42;;
75628;SDS011;64213;46.452;16.994;2023-05-10T16:23:54;9.07;;;3.60;;
75628;SDS011;64213;46.452;16.994;2023-05-10T16:26:56;8.83;;;3.20;;
75628;SDS011;64213;46.452;16.994;2023-05-10T16:29:58;9.13;;;3.72;;
75628;SDS011;64213;46.452;16.994;2023-05-10T16:33:00;8.48;;;3.85;;
75628;SDS011;64213;46.452;16.994;2023-05-10T16:36:03;8.20;;;3.55;;
75628;SDS011;64213;46.452;16.994;2023-05-10T16:39:06;8.23;;;3.67;;
75628;SDS011;64213;46.452;16.994;2023-05-10T16:42:10;9.30;;;3.50;;
75628;SDS011;64213;46.452;16.994;2023-05-10T16:45:12;9.52;;;3.67;;
75628;SDS011;64213;46.452;16.994;2023-05-10T16:48:14;8.40;;;3.53;;
75628;SDS011;64213;46.452;16.994;2023-05-10T16:51:16;8.25;;;3.90;;
75628;SDS011;64213;46.452;16.994;2023-05-10T16:54:18;11.07;;;4.05;;
75628;SDS011;64213;46.452;16.994;2023-05-10T16:57:22;13.53;;;4.23;;
75628;SDS011;64213;46.452;16.994;2023-05-10T17:00:25;7.87;;;3.40;;
75628;SDS011;64213;46.452;16.994;2023-05-10T17:03:27;9.15;;;3.78;;
75628;SDS011;64213;46.452;16.994;2023-05-10T17:06:29;8.32;;;3.30;;
75628;SDS011;64213;46.452;16.994;2023-05-10T17:09:31;9.32;;;3.70;;
75628;SDS011;64213;46.452;16.994;2023-05-10T17:12:33;8.17;;;3.70;;
75628;SDS011;64213;46.452;16.994;2023-05-10T17:15:35;7.95;;;3.28;;
75628;SDS011;64213;46.452;16.994;2023-05-10T17:18:39;11.55;;;3.80;;
75628;SDS011;64213;46.452;16.994;2023-05-10T17:21:42;9.63;;;3.65;;
75628;SDS011;64213;46.452;16.994;2023-05-10T17:24:44;9.30;;;3.78;;
75628;SDS011;64213;46.452;16.994;2023-05-10T17:27:47;7.43;;;3.20;;
75628;SDS011;64213;46.452;16.994;2023-05-10T17:30:54;11.73;;;3.70;;
75628;SDS011;64213;46.452;16.994;2023-05-10T17:33:58;9.00;;;3.55;;
75628;SDS011;64213;46.452;16.994;2023-05-10T17:37:00;8.73;;;3.40;;
75628;SDS011;64213;46.452;16.994;2023-05-10T17:40:03;11.18;;;3.45;;
75628;SDS011;64213;46.452;16.994;2023-05-10T17:43:06;9.40;;;2.90;;
75628;SDS011;64213;46.452;16.994;2023-05-10T17:46:08;7.95;;;3.25;;
75628;SDS011;64213;46.452;16.994;2023-05-10T17:49:10;8.35;;;3.53;;
75628;SDS011;64213;46.452;16.994;2023-05-10T17:52:12;7.93;;;3.50;;
75628;SDS011;64213;46.452;16.994;2023-05-10T17:55:14;7.85;;;3.62;;
75628;SDS011;64213;46.452;16.994;2023-05-10T17:58:16;9.23;;;3.60;;
75628;SDS011;64213;46.452;16.994;2023-05-10T18:01:21;9.38;;;3.90;;
75628;SDS011;64213;46.452;16.994;2023-05-10T18:04:23;12.30;;;3.92;;
75628;SDS011;64213;46.452;16.994;2023-05-10T18:07:26;11.60;;;3.53;;
75628;SDS011;64213;46.452;16.994;2023-05-10T18:10:30;9.43;;;3.97;;
75628;SDS011;64213;46.452;16.994;2023-05-10T18:13:32;9.80;;;3.50;;
75628;SDS011;64213;46.452;16.994;2023-05-10T18:16:35;7.68;;;3.45;;
75628;SDS011;64213;46.452;16.994;2023-05-10T18:19:38;12.95;;;3.67;;
75628;SDS011;64213;46.452;16.994;2023-05-10T18:22:40;8.90;;;3.70;;
75628;SDS011;64213;46.452;16.994;2023-05-10T18:25:42;8.05;;;3.60;;
75628;SDS011;64213;46.452;16.994;2023-05-10T18:28:45;8.07;;;3.27;;
75628;SDS011;64213;46.452;16.994;2023-05-10T18:31:48;9.88;;;3.53;;